createdAt,value
2023-02-14T00:00:31.035Z,4.49
2023-02-14T00:01:32.457Z,4.47
2023-02-14T00:02:34.007Z,4.49
2023-02-14T00:03:35.458Z,4.46
2023-02-14T00:04:43.732Z,4.47
2023-02-14T00:05:45.242Z,4.44
2023-02-14T00:06:46.765Z,4.43
2023-02-14T00:07:48.172Z,4.41
2023-02-14T00:08:52.215Z,4.47
2023-02-14T00:09:53.639Z,4.59
2023-02-14T00:10:55.062Z,4.56
2023-02-14T00:11:56.504Z,4.58
2023-02-14T00:12:57.951Z,4.54
2023-02-14T00:14:18.256Z,4.51
2023-02-14T00:15:22.317Z,4.41
2023-02-14T00:16:23.755Z,4.44
2023-02-14T00:17:25.418Z,4.44
2023-02-14T00:18:45.800Z,4.44
2023-02-14T00:19:47.261Z,4.43
2023-02-14T00:20:48.685Z,4.48
2023-02-14T00:21:50.311Z,4.39
2023-02-14T00:22:52.667Z,4.42
2023-02-14T00:23:54.105Z,4.39
2023-02-14T00:24:55.581Z,4.38
2023-02-14T00:25:57.000Z,4.34
2023-02-14T00:26:58.695Z,4.32
2023-02-14T00:28:00.162Z,4.31
2023-02-14T00:29:01.613Z,4.30
2023-02-14T00:30:03.537Z,4.29
2023-02-14T00:31:05.047Z,4.24
2023-02-14T00:32:06.518Z,4.26
2023-02-14T00:33:08.119Z,4.27
2023-02-14T00:34:10.550Z,4.28
2023-02-14T00:35:12.286Z,4.27
2023-02-14T00:36:13.981Z,4.26
2023-02-14T00:37:15.391Z,4.25
2023-02-14T00:38:16.833Z,4.24
2023-02-14T00:39:19.241Z,4.20
2023-02-14T00:40:20.809Z,4.19
2023-02-14T00:41:22.542Z,4.19
2023-02-14T00:42:24.024Z,4.16
2023-02-14T00:43:25.567Z,4.13
2023-02-14T00:44:27.007Z,4.16
2023-02-14T00:45:28.465Z,4.19
2023-02-14T00:46:30.024Z,4.17
2023-02-14T00:47:31.641Z,4.15
2023-02-14T00:48:33.060Z,4.13
2023-02-14T00:49:34.626Z,4.12
2023-02-14T00:50:36.070Z,4.12
2023-02-14T00:51:37.491Z,4.12
2023-02-14T00:52:38.973Z,4.15
2023-02-14T00:53:40.890Z,4.09
2023-02-14T00:54:42.307Z,4.12
2023-02-14T00:55:46.346Z,4.21
2023-02-14T00:56:47.804Z,4.21
2023-02-14T00:57:49.223Z,4.21
2023-02-14T00:58:50.679Z,4.17
2023-02-14T00:59:52.133Z,4.18
2023-02-14T01:00:53.848Z,4.20
2023-02-14T01:01:55.354Z,4.23
2023-02-14T01:02:56.855Z,4.19
2023-02-14T01:03:58.945Z,4.17
2023-02-14T01:05:00.270Z,4.18
2023-02-14T01:06:01.933Z,4.17
2023-02-14T01:07:03.428Z,4.17
2023-02-14T01:08:05.321Z,4.17
2023-02-14T01:09:06.797Z,4.16
2023-02-14T01:10:08.529Z,4.19
2023-02-14T01:11:18.589Z,4.18
2023-02-14T01:12:20.010Z,4.15
2023-02-14T01:13:21.847Z,4.12
2023-02-14T01:14:23.303Z,4.11
2023-02-14T01:15:24.897Z,4.07
2023-02-14T01:16:27.967Z,4.09
2023-02-14T01:17:29.425Z,4.03
2023-02-14T01:18:30.842Z,4.07
2023-02-14T01:19:32.282Z,4.07
2023-02-14T01:20:34.911Z,4.05
2023-02-14T01:21:36.436Z,4.04
2023-02-14T01:22:38.419Z,4.03
2023-02-14T01:23:39.921Z,4.01
2023-02-14T01:24:41.336Z,4.00
2023-02-14T01:25:42.753Z,4.00
2023-02-14T01:26:44.230Z,3.99
2023-02-14T01:27:45.785Z,4.08
2023-02-14T01:28:47.690Z,4.11
2023-02-14T01:29:49.167Z,4.15
2023-02-14T01:30:51.778Z,4.14
2023-02-14T01:31:53.338Z,4.10
2023-02-14T01:32:54.766Z,4.11
2023-02-14T01:33:57.461Z,4.14
2023-02-14T01:34:59.142Z,4.08
2023-02-14T01:36:00.741Z,4.10
2023-02-14T01:37:02.164Z,4.08
2023-02-14T01:38:03.588Z,4.10
2023-02-14T01:39:08.304Z,4.09
2023-02-14T01:40:11.287Z,4.07
2023-02-14T01:41:12.948Z,4.05
2023-02-14T01:42:14.500Z,4.02
2023-02-14T01:43:16.331Z,3.97
2023-02-14T01:44:17.730Z,4.00
2023-02-14T01:45:22.038Z,4.00
2023-02-14T01:46:25.975Z,4.09
2023-02-14T01:47:29.167Z,4.12
2023-02-14T01:48:30.629Z,4.10
2023-02-14T01:49:54.362Z,4.06
2023-02-14T01:50:56.307Z,4.05
2023-02-14T01:52:08.169Z,4.05
2023-02-14T01:53:19.273Z,3.98
2023-02-14T01:54:23.971Z,4.04
2023-02-14T01:55:31.036Z,4.07
2023-02-14T01:56:38.544Z,4.04
2023-02-14T01:57:49.840Z,4.04
2023-02-14T01:58:55.953Z,3.98
2023-02-14T02:00:19.655Z,4.05
2023-02-14T02:01:21.491Z,4.03
2023-02-14T02:02:26.040Z,4.03
2023-02-14T02:03:42.393Z,3.99
2023-02-14T02:04:46.684Z,3.99
2023-02-14T02:05:52.406Z,4.03
2023-02-14T02:06:59.722Z,4.03
2023-02-14T02:08:01.921Z,4.04
2023-02-14T02:09:18.123Z,4.04
2023-02-14T02:10:19.760Z,4.03
2023-02-14T02:11:21.272Z,4.04
2023-02-14T02:12:23.000Z,3.99
2023-02-14T02:13:24.473Z,4.00
2023-02-14T02:14:25.919Z,3.99
2023-02-14T02:15:31.038Z,3.99
2023-02-14T02:16:38.351Z,3.99
2023-02-14T02:17:48.874Z,3.98
2023-02-14T02:19:15.900Z,3.96
2023-02-14T02:20:48.030Z,3.91
2023-02-14T02:22:09.576Z,3.92
2023-02-14T02:23:29.874Z,3.89
2023-02-14T02:24:42.047Z,3.86
2023-02-14T02:25:55.502Z,3.87
2023-02-14T02:27:35.291Z,3.86
2023-02-14T02:28:45.574Z,3.86
2023-02-14T02:30:01.849Z,3.83
2023-02-14T02:31:18.269Z,3.85
2023-02-14T02:32:50.369Z,3.87
2023-02-14T02:34:10.051Z,3.89
2023-02-14T02:35:45.716Z,3.86
2023-02-14T02:37:03.671Z,3.89
2023-02-14T02:38:25.044Z,3.88
2023-02-14T02:39:35.800Z,3.85
2023-02-14T02:41:04.163Z,3.86
2023-02-14T02:42:24.371Z,3.87
2023-02-14T02:43:56.788Z,3.86
2023-02-14T02:45:20.563Z,3.82
2023-02-14T02:46:48.021Z,3.82
2023-02-14T02:48:04.959Z,3.81
2023-02-14T02:49:44.432Z,3.81
2023-02-14T02:51:11.959Z,3.78
2023-02-14T02:52:42.951Z,3.81
2023-02-14T02:53:52.542Z,3.80
2023-02-14T02:55:01.019Z,3.76
2023-02-14T02:56:30.072Z,3.76
2023-02-14T02:57:39.142Z,3.76
2023-02-14T02:58:50.185Z,3.76
2023-02-14T02:59:54.628Z,3.74
2023-02-14T03:00:59.782Z,3.81
2023-02-14T03:02:15.973Z,3.94
2023-02-14T03:03:38.033Z,3.94
2023-02-14T03:04:55.841Z,3.95
2023-02-14T03:05:57.968Z,3.98
2023-02-14T03:06:59.806Z,3.95
2023-02-14T03:08:01.234Z,3.96
2023-02-14T03:09:33.250Z,3.90
2023-02-14T03:10:38.229Z,3.91
2023-02-14T03:11:49.133Z,3.87
2023-02-14T03:13:21.773Z,3.88
2023-02-14T03:14:35.504Z,3.92
2023-02-14T03:16:18.118Z,3.91
2023-02-14T03:17:32.377Z,3.92
2023-02-14T03:18:58.424Z,3.91
2023-02-14T03:20:16.780Z,3.88
2023-02-14T03:21:42.764Z,3.89
2023-02-14T03:23:13.162Z,3.91
2023-02-14T03:24:45.776Z,3.91
2023-02-14T03:25:52.147Z,3.88
2023-02-14T03:27:06.139Z,3.87
2023-02-14T03:28:15.324Z,3.85
2023-02-14T03:29:24.389Z,3.80
2023-02-14T03:30:44.816Z,3.82
2023-02-14T03:32:05.273Z,3.94
2023-02-14T03:33:10.677Z,3.98
2023-02-14T03:34:38.224Z,3.97
2023-02-14T03:35:54.439Z,3.95
2023-02-14T03:37:05.929Z,3.97
2023-02-14T03:38:16.655Z,3.94
2023-02-14T03:39:34.006Z,3.97
2023-02-14T03:40:41.526Z,3.92
2023-02-14T03:41:51.618Z,3.88
2023-02-14T03:42:58.598Z,3.87
2023-02-14T03:44:05.065Z,3.85
2023-02-14T03:45:12.069Z,3.87
2023-02-14T03:46:20.404Z,3.81
2023-02-14T03:47:27.391Z,3.88
2023-02-14T03:48:30.958Z,3.90
2023-02-14T03:49:37.252Z,3.90
2023-02-14T03:50:41.288Z,3.88
2023-02-14T03:51:46.925Z,3.87
2023-02-14T03:52:53.273Z,3.84
2023-02-14T03:53:58.130Z,3.82
2023-02-14T03:55:01.284Z,3.81
2023-02-14T03:56:22.517Z,3.80
2023-02-14T03:57:35.074Z,3.75
2023-02-14T03:58:43.451Z,3.77
2023-02-14T03:59:44.961Z,3.79
2023-02-14T04:00:50.275Z,3.77
2023-02-14T04:02:20.581Z,3.78
2023-02-14T04:03:24.929Z,3.75
2023-02-14T04:04:30.880Z,3.75
2023-02-14T04:05:33.349Z,3.76
2023-02-14T04:06:35.749Z,3.82
2023-02-14T04:08:02.557Z,3.83
2023-02-14T04:09:04.009Z,3.92
2023-02-14T04:10:07.043Z,4.04
2023-02-14T04:11:08.654Z,4.06
2023-02-14T04:12:10.362Z,4.03
2023-02-14T04:13:11.810Z,4.04
2023-02-14T04:14:13.402Z,4.01
2023-02-14T04:15:15.865Z,4.03
2023-02-14T04:16:17.410Z,4.00
2023-02-14T04:17:37.534Z,3.97
2023-02-14T04:18:57.296Z,3.99
2023-02-14T04:19:58.776Z,3.93
2023-02-14T04:21:00.539Z,3.91
2023-02-14T04:22:02.125Z,3.90
2023-02-14T04:23:03.867Z,3.89
2023-02-14T04:24:05.647Z,3.88
2023-02-14T04:25:07.373Z,3.89
2023-02-14T04:26:09.318Z,3.85
2023-02-14T04:27:11.184Z,3.84
2023-02-14T04:28:13.023Z,3.86
2023-02-14T04:29:14.875Z,3.88
2023-02-14T04:30:17.997Z,3.87
2023-02-14T04:31:19.630Z,3.94
2023-02-14T04:32:22.539Z,3.90
2023-02-14T04:33:23.978Z,3.91
2023-02-14T04:34:25.517Z,3.89
2023-02-14T04:35:26.954Z,3.87
2023-02-14T04:36:28.367Z,3.85
2023-02-14T04:37:29.756Z,3.82
2023-02-14T04:38:32.662Z,3.81
2023-02-14T04:39:35.061Z,3.75
2023-02-14T04:40:36.514Z,3.80
2023-02-14T04:41:37.933Z,3.78
2023-02-14T04:42:39.364Z,3.73
2023-02-14T04:43:40.755Z,3.78
2023-02-14T04:44:42.273Z,3.79
2023-02-14T04:45:43.710Z,3.76
2023-02-14T04:46:45.173Z,3.76
2023-02-14T04:47:46.591Z,3.75
2023-02-14T04:48:48.109Z,3.74
2023-02-14T04:49:49.520Z,3.72
2023-02-14T04:50:55.101Z,3.70
2023-02-14T04:51:57.048Z,3.72
2023-02-14T04:52:58.516Z,3.71
2023-02-14T04:53:59.993Z,3.70
2023-02-14T04:55:01.527Z,3.71
2023-02-14T04:56:02.947Z,3.69
2023-02-14T04:57:04.493Z,3.68
2023-02-14T04:58:06.195Z,3.67
2023-02-14T04:59:07.828Z,3.70
2023-02-14T05:00:10.005Z,3.74
2023-02-14T05:01:11.501Z,3.72
2023-02-14T05:02:12.989Z,3.75
2023-02-14T05:03:14.483Z,3.75
2023-02-14T05:04:16.033Z,3.77
2023-02-14T05:05:17.550Z,3.78
2023-02-14T05:06:18.972Z,3.79
2023-02-14T05:07:20.348Z,3.75
2023-02-14T05:08:21.776Z,3.79
2023-02-14T05:09:23.234Z,3.81
2023-02-14T05:10:24.713Z,3.88
2023-02-14T05:11:27.525Z,3.96
2023-02-14T05:12:28.925Z,4.03
2023-02-14T05:13:31.865Z,4.00
2023-02-14T05:14:33.330Z,3.96
2023-02-14T05:15:36.254Z,3.90
2023-02-14T05:16:39.745Z,3.87
2023-02-14T05:17:41.164Z,3.84
2023-02-14T05:18:42.658Z,3.80
2023-02-14T05:19:44.146Z,3.79
2023-02-14T05:20:45.552Z,3.76
2023-02-14T05:21:47.066Z,3.74
2023-02-14T05:22:48.491Z,3.72
2023-02-14T05:23:49.892Z,3.72
2023-02-14T05:24:51.345Z,3.72
2023-02-14T05:25:52.823Z,3.70
2023-02-14T05:26:54.418Z,3.71
2023-02-14T05:27:56.008Z,3.71
2023-02-14T05:28:57.507Z,3.72
2023-02-14T05:29:59.006Z,3.73
2023-02-14T05:31:00.948Z,3.79
2023-02-14T05:32:02.848Z,3.80
2023-02-14T05:33:04.297Z,3.85
2023-02-14T05:34:05.782Z,3.88
2023-02-14T05:35:07.409Z,3.83
2023-02-14T05:36:09.096Z,3.87
2023-02-14T05:37:10.542Z,3.83
2023-02-14T05:38:13.111Z,3.81
2023-02-14T05:39:14.611Z,3.83
2023-02-14T05:40:16.319Z,3.85
2023-02-14T05:41:17.904Z,3.80
2023-02-14T05:42:19.332Z,3.80
2023-02-14T05:43:21.498Z,3.74
2023-02-14T05:44:23.312Z,3.74
2023-02-14T05:45:25.131Z,3.71
2023-02-14T05:46:26.689Z,3.69
2023-02-14T05:47:28.083Z,3.67
2023-02-14T05:48:29.509Z,3.67
2023-02-14T05:49:30.962Z,3.67
2023-02-14T05:50:32.389Z,3.67
2023-02-14T05:51:33.840Z,3.63
2023-02-14T05:52:35.293Z,3.68
2023-02-14T05:53:36.759Z,3.64
2023-02-14T05:54:38.246Z,3.75
2023-02-14T05:55:39.795Z,3.73
2023-02-14T05:56:41.259Z,3.72
2023-02-14T05:57:42.777Z,3.70
2023-02-14T05:58:44.271Z,3.66
2023-02-14T05:59:45.720Z,3.66
2023-02-14T06:00:47.172Z,3.63
2023-02-14T06:01:48.654Z,3.63
2023-02-14T06:02:50.258Z,3.61
2023-02-14T06:03:51.695Z,3.60
2023-02-14T06:04:53.179Z,3.59
2023-02-14T06:05:54.664Z,3.64
2023-02-14T06:06:56.234Z,3.68
2023-02-14T06:07:57.809Z,3.71
2023-02-14T06:08:59.207Z,3.70
2023-02-14T06:10:00.688Z,3.71
2023-02-14T06:11:02.442Z,3.71
2023-02-14T06:12:04.260Z,3.69
2023-02-14T06:13:08.752Z,3.72
2023-02-14T06:14:10.199Z,3.68
2023-02-14T06:15:12.092Z,3.74
2023-02-14T06:16:13.528Z,3.70
2023-02-14T06:17:14.997Z,3.77
2023-02-14T06:18:16.474Z,3.92
2023-02-14T06:19:17.920Z,3.96
2023-02-14T06:20:20.162Z,3.97
2023-02-14T06:21:21.768Z,3.95
2023-02-14T06:22:23.196Z,3.93
2023-02-14T06:23:24.605Z,3.92
2023-02-14T06:24:26.006Z,3.87
2023-02-14T06:25:27.447Z,3.79
2023-02-14T06:26:29.075Z,3.85
2023-02-14T06:27:31.401Z,3.84
2023-02-14T06:28:32.862Z,3.82
2023-02-14T06:29:34.312Z,3.84
2023-02-14T06:30:35.869Z,3.83
2023-02-14T06:31:37.551Z,3.79
2023-02-14T06:32:39.395Z,3.80
2023-02-14T06:33:40.844Z,3.76
2023-02-14T06:34:42.272Z,3.74
2023-02-14T06:35:43.723Z,3.72
2023-02-14T06:36:45.140Z,3.72
2023-02-14T06:37:46.727Z,3.71
2023-02-14T06:38:49.125Z,3.69
2023-02-14T06:39:50.590Z,3.68
2023-02-14T06:40:52.038Z,3.71
2023-02-14T06:41:53.495Z,3.72
2023-02-14T06:42:54.947Z,3.69
2023-02-14T06:43:56.466Z,3.68
2023-02-14T06:44:57.894Z,3.72
2023-02-14T06:46:00.233Z,3.76
2023-02-14T06:47:01.806Z,3.75
2023-02-14T06:48:03.762Z,3.74
2023-02-14T06:49:05.149Z,3.74
2023-02-14T06:50:07.315Z,3.75
2023-02-14T06:51:09.083Z,3.79
2023-02-14T06:52:10.724Z,3.84
2023-02-14T06:53:12.141Z,3.88
2023-02-14T06:54:13.735Z,3.92
2023-02-14T06:55:15.214Z,4.00
2023-02-14T06:56:16.684Z,4.10
2023-02-14T06:57:18.148Z,4.17
2023-02-14T06:58:19.659Z,4.18
2023-02-14T06:59:21.150Z,4.24
2023-02-14T07:00:22.672Z,4.23
2023-02-14T07:01:24.193Z,4.23
2023-02-14T07:02:25.780Z,4.28
2023-02-14T07:03:27.393Z,4.21
2023-02-14T07:04:31.907Z,4.19
2023-02-14T07:05:34.036Z,4.16
2023-02-14T07:06:38.222Z,4.12
2023-02-14T07:07:39.637Z,4.09
2023-02-14T07:08:42.242Z,4.05
2023-02-14T07:09:43.680Z,4.05
2023-02-14T07:10:45.090Z,4.07
2023-02-14T07:11:47.687Z,4.08
2023-02-14T07:12:49.120Z,4.07
2023-02-14T07:13:50.545Z,4.19
2023-02-14T07:14:51.958Z,4.24
2023-02-14T07:15:53.521Z,4.23
2023-02-14T07:16:55.006Z,4.18
2023-02-14T07:17:56.513Z,4.24
2023-02-14T07:18:57.916Z,4.31
2023-02-14T07:19:59.322Z,4.28
2023-02-14T07:21:01.182Z,4.27
2023-02-14T07:22:02.793Z,4.25
2023-02-14T07:23:04.289Z,4.25
2023-02-14T07:24:05.838Z,4.23
2023-02-14T07:25:07.994Z,4.21
2023-02-14T07:26:09.410Z,4.24
2023-02-14T07:27:10.883Z,4.24
2023-02-14T07:28:12.298Z,4.26
2023-02-14T07:29:13.789Z,4.28
2023-02-14T07:30:15.470Z,4.31
2023-02-14T07:31:18.476Z,4.35
2023-02-14T07:32:20.159Z,4.40
2023-02-14T07:33:21.680Z,4.36
2023-02-14T07:34:23.145Z,4.35
2023-02-14T07:35:24.849Z,4.36
2023-02-14T07:36:27.001Z,4.30
2023-02-14T07:37:28.437Z,4.34
2023-02-14T07:38:30.514Z,4.41
2023-02-14T07:39:31.858Z,4.44
2023-02-14T07:40:33.547Z,4.44
2023-02-14T07:41:34.988Z,4.46
2023-02-14T07:42:36.498Z,4.48
2023-02-14T07:43:39.547Z,4.48
2023-02-14T07:44:41.058Z,4.53
2023-02-14T07:45:42.500Z,4.54
2023-02-14T07:46:43.939Z,4.58
2023-02-14T07:47:45.352Z,4.59
2023-02-14T07:48:48.211Z,4.60
2023-02-14T07:49:49.639Z,4.60
2023-02-14T07:50:51.098Z,4.62
2023-02-14T07:51:52.530Z,4.64
2023-02-14T07:52:54.069Z,4.64
2023-02-14T07:53:55.505Z,4.67
2023-02-14T07:54:56.932Z,4.70
2023-02-14T07:55:58.489Z,4.70
2023-02-14T07:57:00.122Z,4.79
2023-02-14T07:58:01.598Z,4.78
2023-02-14T07:59:03.093Z,4.77
2023-02-14T08:00:05.625Z,4.87
2023-02-14T08:01:07.157Z,4.86
2023-02-14T08:02:11.183Z,4.87
2023-02-14T08:03:13.576Z,4.90
2023-02-14T08:04:15.072Z,4.88
2023-02-14T08:05:17.034Z,4.93
2023-02-14T08:06:19.367Z,4.91
2023-02-14T08:07:20.835Z,4.94
2023-02-14T08:08:32.583Z,4.96
2023-02-14T08:09:34.133Z,4.97
2023-02-14T08:10:35.624Z,4.99
2023-02-14T08:11:56.228Z,5.01
2023-02-14T08:13:00.380Z,5.06
2023-02-14T08:14:02.258Z,5.09
2023-02-14T08:15:22.810Z,5.13
2023-02-14T08:16:24.329Z,5.16
2023-02-14T08:17:25.794Z,5.15
2023-02-14T08:18:27.730Z,5.19
2023-02-14T08:19:29.551Z,5.19
2023-02-14T08:20:30.990Z,5.21
2023-02-14T08:21:32.379Z,5.20
2023-02-14T08:22:33.869Z,5.14
2023-02-14T08:23:36.269Z,5.17
2023-02-14T08:24:37.699Z,5.17
2023-02-14T08:25:39.668Z,5.20
2023-02-14T08:26:41.208Z,5.20
2023-02-14T08:27:42.618Z,5.20
2023-02-14T08:28:44.427Z,5.17
2023-02-14T08:29:45.820Z,5.28
2023-02-14T08:30:47.602Z,5.28
2023-02-14T08:31:49.191Z,5.26
2023-02-14T08:32:50.719Z,5.40
2023-02-14T08:33:52.183Z,5.36
2023-02-14T08:34:53.569Z,5.44
2023-02-14T08:35:55.557Z,5.42
2023-02-14T08:36:56.983Z,5.46
2023-02-14T08:37:59.167Z,5.47
2023-02-14T08:39:01.249Z,5.47
2023-02-14T08:40:02.621Z,5.50
2023-02-14T08:41:08.082Z,5.52
2023-02-14T08:42:10.122Z,5.58
2023-02-14T08:43:11.816Z,5.62
2023-02-14T08:44:13.242Z,5.57
2023-02-14T08:45:14.768Z,5.54
2023-02-14T08:46:16.945Z,5.68
2023-02-14T08:47:18.462Z,5.69
2023-02-14T08:48:20.453Z,5.65
2023-02-14T08:49:21.884Z,5.66
2023-02-14T08:50:23.366Z,5.59
2023-02-14T08:51:25.928Z,5.61
2023-02-14T08:52:27.360Z,5.62
2023-02-14T08:53:28.762Z,5.60
2023-02-14T08:54:30.239Z,5.61
2023-02-14T08:55:31.855Z,5.63
2023-02-14T08:56:33.318Z,5.57
2023-02-14T08:57:34.774Z,5.60
2023-02-14T08:58:38.350Z,5.64
2023-02-14T08:59:39.760Z,5.65
2023-02-14T09:00:41.251Z,5.64
2023-02-14T09:01:42.754Z,5.70
2023-02-14T09:02:44.366Z,5.75
2023-02-14T09:03:45.847Z,5.71
2023-02-14T09:04:47.288Z,5.76
2023-02-14T09:05:48.708Z,5.76
2023-02-14T09:06:50.551Z,5.76
2023-02-14T09:07:52.612Z,5.80
2023-02-14T09:08:55.101Z,5.76
2023-02-14T09:09:56.577Z,5.76
2023-02-14T09:10:58.708Z,5.82
2023-02-14T09:12:05.113Z,5.89
2023-02-14T09:13:07.297Z,5.93
2023-02-14T09:14:09.211Z,5.95
2023-02-14T09:15:11.512Z,5.92
2023-02-14T09:16:16.471Z,6.01
2023-02-14T09:17:18.367Z,5.94
2023-02-14T09:18:19.786Z,5.96
2023-02-14T09:19:21.218Z,6.01
2023-02-14T09:20:22.884Z,5.96
2023-02-14T09:21:27.526Z,6.05
2023-02-14T09:22:29.013Z,6.05
2023-02-14T09:23:30.452Z,6.13
2023-02-14T09:24:33.069Z,6.12
2023-02-14T09:25:34.539Z,6.15
2023-02-14T09:26:38.796Z,6.17
2023-02-14T09:27:40.314Z,6.16
2023-02-14T09:28:42.322Z,6.19
2023-02-14T09:29:43.697Z,6.23
2023-02-14T09:30:45.085Z,6.24
2023-02-14T09:31:46.595Z,6.31
2023-02-14T09:32:48.121Z,6.32
2023-02-14T09:34:09.150Z,6.30
2023-02-14T09:35:10.558Z,6.30
2023-02-14T09:36:30.610Z,6.30
2023-02-14T09:37:50.506Z,6.36
2023-02-14T09:38:51.982Z,6.35
2023-02-14T09:39:53.464Z,6.28
2023-02-14T09:40:55.535Z,6.26
2023-02-14T09:42:04.617Z,6.24
2023-02-14T09:43:41.508Z,6.27
2023-02-14T09:44:51.373Z,6.25
2023-02-14T09:45:56.796Z,6.24
2023-02-14T09:47:06.289Z,6.20
2023-02-14T09:48:16.197Z,6.20
2023-02-14T09:49:23.592Z,6.22
2023-02-14T09:50:37.037Z,6.31
2023-02-14T09:51:43.489Z,6.27
2023-02-14T09:52:49.036Z,6.19
2023-02-14T09:53:52.850Z,6.24
2023-02-14T09:54:58.160Z,6.28
2023-02-14T09:56:07.312Z,6.30
2023-02-14T09:57:23.684Z,6.28
2023-02-14T09:58:49.965Z,6.36
2023-02-14T10:00:02.809Z,6.44
2023-02-14T10:01:27.343Z,6.49
2023-02-14T10:02:34.602Z,6.47
2023-02-14T10:03:45.116Z,6.53
2023-02-14T10:05:06.791Z,6.50
2023-02-14T10:06:33.401Z,6.63
2023-02-14T10:07:45.053Z,6.61
2023-02-14T10:09:01.828Z,6.62
2023-02-14T10:10:23.496Z,6.50
2023-02-14T10:11:25.281Z,6.45
2023-02-14T10:12:32.226Z,6.49
2023-02-14T10:13:40.770Z,6.57
2023-02-14T10:14:43.462Z,6.56
2023-02-14T10:15:48.537Z,6.55
2023-02-14T10:16:59.411Z,6.54
2023-02-14T10:18:19.702Z,6.65
2023-02-14T10:19:32.471Z,6.64
2023-02-14T10:20:39.064Z,6.61
2023-02-14T10:21:55.130Z,6.62
2023-02-14T10:23:03.316Z,6.71
2023-02-14T10:24:16.823Z,6.76
2023-02-14T10:25:28.331Z,6.75
2023-02-14T10:26:39.962Z,6.76
2023-02-14T10:27:45.929Z,6.75
2023-02-14T10:28:49.466Z,6.74
2023-02-14T10:29:50.990Z,6.76
2023-02-14T10:31:01.474Z,6.79
2023-02-14T10:32:04.706Z,6.79
2023-02-14T10:33:17.308Z,6.80
2023-02-14T10:34:35.282Z,6.69
2023-02-14T10:35:58.302Z,6.53
2023-02-14T10:37:02.464Z,6.51
2023-02-14T10:38:17.168Z,6.46
2023-02-14T10:39:35.240Z,6.49
2023-02-14T10:41:28.282Z,6.54
2023-02-14T10:42:53.750Z,6.52
2023-02-14T10:44:01.139Z,6.59
2023-02-14T10:45:14.811Z,6.57
2023-02-14T10:46:34.862Z,6.61
2023-02-14T10:47:46.860Z,6.52
2023-02-14T10:49:07.362Z,6.51
2023-02-14T10:50:34.466Z,6.45
2023-02-14T10:51:43.230Z,6.45
2023-02-14T10:53:04.690Z,6.62
2023-02-14T10:54:38.050Z,6.68
2023-02-14T10:56:02.672Z,6.70
2023-02-14T10:57:28.740Z,6.67
2023-02-14T10:58:32.544Z,6.71
2023-02-14T10:59:46.550Z,6.77
2023-02-14T11:01:06.589Z,6.68
2023-02-14T11:02:14.074Z,6.75
2023-02-14T11:03:15.911Z,6.70
2023-02-14T11:04:19.758Z,6.69
2023-02-14T11:05:30.719Z,6.68
2023-02-14T11:06:32.859Z,6.74
2023-02-14T11:07:34.374Z,6.76
2023-02-14T11:08:41.064Z,6.66
2023-02-14T11:09:42.789Z,6.67
2023-02-14T11:10:44.962Z,6.60
2023-02-14T11:12:08.467Z,6.49
2023-02-14T11:13:31.487Z,6.54
2023-02-14T11:14:36.503Z,6.54
2023-02-14T11:15:40.039Z,6.62
2023-02-14T11:16:42.067Z,6.64
2023-02-14T11:17:43.465Z,6.79
2023-02-14T11:18:44.937Z,6.84
2023-02-14T11:20:02.407Z,6.92
2023-02-14T11:21:24.346Z,6.94
2023-02-14T11:22:32.070Z,6.95
2023-02-14T11:23:41.389Z,6.98
2023-02-14T11:24:42.824Z,7.00
2023-02-14T11:25:51.269Z,6.99
2023-02-14T11:26:55.722Z,6.98
2023-02-14T11:28:05.065Z,7.10
2023-02-14T11:29:14.977Z,7.18
2023-02-14T11:30:29.954Z,7.15
2023-02-14T11:31:37.884Z,7.20
2023-02-14T11:32:40.749Z,7.18
2023-02-14T11:33:44.124Z,7.20
2023-02-14T11:34:52.740Z,7.11
2023-02-14T11:35:54.467Z,7.18
2023-02-14T11:36:55.993Z,7.09
2023-02-14T11:37:58.159Z,7.07
2023-02-14T11:39:18.386Z,7.08
2023-02-14T11:40:28.076Z,7.17
2023-02-14T11:41:46.612Z,6.92
2023-02-14T11:42:51.628Z,6.89
2023-02-14T11:44:14.603Z,6.80
2023-02-14T11:45:36.702Z,6.71
2023-02-14T11:46:52.178Z,6.76
2023-02-14T11:48:10.064Z,6.87
2023-02-14T11:49:24.041Z,6.86
2023-02-14T11:50:25.995Z,6.81
2023-02-14T11:51:43.524Z,6.75
2023-02-14T11:52:54.388Z,6.76
2023-02-14T11:54:03.135Z,6.76
2023-02-14T11:55:05.123Z,6.72
2023-02-14T11:56:06.517Z,6.64
2023-02-14T11:57:23.108Z,6.71
2023-02-14T11:58:36.438Z,6.68
2023-02-14T11:59:50.971Z,6.57
2023-02-14T12:00:54.160Z,6.68
2023-02-14T12:01:57.955Z,6.71
2023-02-14T12:03:04.621Z,6.78
2023-02-14T12:04:15.245Z,6.78
2023-02-14T12:05:31.015Z,6.76
2023-02-14T12:06:35.284Z,6.79
2023-02-14T12:07:38.608Z,6.90
2023-02-14T12:08:41.905Z,6.84
2023-02-14T12:09:44.240Z,6.76
2023-02-14T12:11:02.022Z,6.61
2023-02-14T12:12:16.940Z,6.67
2023-02-14T12:13:24.377Z,6.69
2023-02-14T12:14:32.397Z,6.60
2023-02-14T12:15:53.983Z,6.67
2023-02-14T12:17:03.016Z,6.65
2023-02-14T12:18:28.588Z,6.68
2023-02-14T12:19:51.621Z,6.68
2023-02-14T12:21:01.350Z,6.66
2023-02-14T12:22:06.012Z,6.70
2023-02-14T12:23:16.942Z,6.75
2023-02-14T12:24:21.220Z,6.87
2023-02-14T12:25:27.160Z,6.75
2023-02-14T12:26:50.923Z,6.70
2023-02-14T12:28:09.691Z,6.73
2023-02-14T12:29:14.289Z,6.71
2023-02-14T12:30:21.350Z,6.72
2023-02-14T12:31:22.924Z,6.69
2023-02-14T12:32:26.255Z,6.73
2023-02-14T12:33:28.406Z,6.79
2023-02-14T12:34:30.049Z,6.79
2023-02-14T12:35:50.140Z,6.88
2023-02-14T12:37:02.039Z,6.97
2023-02-14T12:38:11.002Z,7.09
2023-02-14T12:39:30.952Z,7.13
2023-02-14T12:40:50.670Z,7.09
2023-02-14T12:42:17.333Z,7.08
2023-02-14T12:43:39.861Z,7.08
2023-02-14T12:44:47.238Z,7.01
2023-02-14T12:46:06.472Z,6.95
2023-02-14T12:47:10.915Z,7.03
2023-02-14T12:48:21.440Z,7.08
2023-02-14T12:49:49.383Z,7.08
2023-02-14T12:51:06.082Z,7.09
2023-02-14T12:52:28.663Z,7.15
2023-02-14T12:53:51.236Z,6.92
2023-02-14T12:54:55.617Z,6.95
2023-02-14T12:56:10.706Z,6.93
2023-02-14T12:57:49.745Z,6.98
2023-02-14T12:59:25.436Z,6.99
2023-02-14T13:00:38.819Z,6.94
2023-02-14T13:01:55.340Z,6.94
2023-02-14T13:03:18.291Z,6.94
2023-02-14T13:04:35.645Z,6.95
2023-02-14T13:06:02.016Z,6.98
2023-02-14T13:07:15.588Z,6.93
2023-02-14T13:08:32.301Z,6.83
2023-02-14T13:09:37.773Z,6.90
2023-02-14T13:11:20.862Z,6.90
2023-02-14T13:12:42.457Z,6.88
2023-02-14T13:13:43.828Z,6.89
2023-02-14T13:15:16.347Z,6.85
2023-02-14T13:16:42.130Z,6.86
2023-02-14T13:17:55.288Z,6.90
2023-02-14T13:19:21.424Z,6.98
2023-02-14T13:20:55.999Z,6.95
2023-02-14T13:21:59.841Z,6.93
2023-02-14T13:23:05.821Z,6.97
2023-02-14T13:24:19.949Z,6.92
2023-02-14T13:25:33.782Z,6.78
2023-02-14T13:26:38.589Z,6.72
2023-02-14T13:27:41.393Z,6.77
2023-02-14T13:28:50.841Z,6.78
2023-02-14T13:29:58.251Z,6.74
2023-02-14T13:31:01.768Z,6.72
2023-02-14T13:32:04.331Z,6.79
2023-02-14T13:33:43.554Z,6.73
2023-02-14T13:34:48.208Z,6.73
2023-02-14T13:35:51.808Z,6.63
2023-02-14T13:36:57.017Z,6.71
2023-02-14T13:38:13.844Z,6.66
2023-02-14T13:39:29.331Z,6.67
2023-02-14T13:40:32.244Z,6.59
2023-02-14T13:41:34.314Z,6.53
2023-02-14T13:43:01.910Z,6.51
2023-02-14T13:44:05.328Z,6.46
2023-02-14T13:45:40.389Z,6.49
2023-02-14T13:46:51.203Z,6.49
2023-02-14T13:48:06.479Z,6.49
2023-02-14T13:49:17.218Z,6.44
2023-02-14T13:50:21.975Z,6.41
2023-02-14T13:51:44.238Z,6.46
2023-02-14T13:52:48.601Z,6.49
2023-02-14T13:53:51.559Z,6.53
2023-02-14T13:55:03.191Z,6.47
2023-02-14T13:56:16.721Z,6.37
2023-02-14T13:57:38.661Z,6.32
2023-02-14T13:58:48.987Z,6.32
2023-02-14T14:00:16.206Z,6.40
2023-02-14T14:01:39.183Z,6.38
2023-02-14T14:02:50.883Z,6.34
2023-02-14T14:03:55.272Z,6.33
2023-02-14T14:04:56.892Z,6.37
2023-02-14T14:06:10.730Z,6.39
2023-02-14T14:07:18.063Z,6.41
2023-02-14T14:08:22.762Z,6.45
2023-02-14T14:09:42.542Z,6.48
2023-02-14T14:10:50.049Z,6.47
2023-02-14T14:11:51.962Z,6.51
2023-02-14T14:12:53.442Z,6.41
2023-02-14T14:13:56.453Z,6.37
2023-02-14T14:15:06.799Z,6.33
2023-02-14T14:16:23.512Z,6.32
2023-02-14T14:17:26.198Z,6.24
2023-02-14T14:18:27.744Z,6.24
2023-02-14T14:19:29.109Z,6.20
2023-02-14T14:20:38.131Z,6.21
2023-02-14T14:21:44.038Z,6.26
2023-02-14T14:22:55.719Z,6.28
2023-02-14T14:24:28.949Z,6.25
2023-02-14T14:25:30.832Z,6.28
2023-02-14T14:27:00.901Z,6.25
2023-02-14T14:28:10.157Z,6.26
2023-02-14T14:29:18.377Z,6.33
2023-02-14T14:30:25.858Z,6.31
2023-02-14T14:31:29.601Z,6.30
2023-02-14T14:32:32.987Z,6.23
2023-02-14T14:33:35.016Z,6.24
2023-02-14T14:34:36.521Z,6.22
2023-02-14T14:35:37.991Z,6.23
2023-02-14T14:36:39.505Z,6.21
2023-02-14T14:37:48.495Z,6.19
2023-02-14T14:38:53.419Z,6.15
2023-02-14T14:39:59.965Z,6.15
2023-02-14T14:41:02.191Z,6.05
2023-02-14T14:42:09.740Z,6.09
2023-02-14T14:43:31.318Z,6.08
2023-02-14T14:44:35.240Z,6.11
2023-02-14T14:45:37.208Z,6.09
2023-02-14T14:46:38.649Z,5.89
2023-02-14T14:47:45.314Z,6.03
2023-02-14T14:48:54.393Z,6.02
2023-02-14T14:50:03.511Z,6.05
2023-02-14T14:51:07.855Z,6.01
2023-02-14T14:52:24.504Z,6.00